sensor_id;sensor_type;location;lat;lon;timestamp;pressure;altitude;pressure_sealevel;temperature;humidity
72118;BME280;59992;47.490;8.736;2023-07-22T00:00:31;96645.45;;;17.33;83.74
72118;BME280;59992;47.490;8.736;2023-07-22T00:03:21;96640.67;;;17.30;84.68
72118;BME280;59992;47.490;8.736;2023-07-22T00:06:12;96638.11;;;17.26;84.85
72118;BME280;59992;47.490;8.736;2023-07-22T00:09:03;96635.21;;;17.24;83.55
72118;BME280;59992;47.490;8.736;2023-07-22T00:11:53;96635.93;;;17.22;83.89
72118;BME280;59992;47.490;8.736;2023-07-22T00:14:43;96630.83;;;17.20;83.30
72118;BME280;59992;47.490;8.736;2023-07-22T00:17:33;96623.59;;;17.18;83.04
72118;BME280;59992;47.490;8.736;2023-07-22T00:20:24;96623.02;;;17.13;85.36
72118;BME280;59992;47.490;8.736;2023-07-22T00:23:15;96617.72;;;17.09;84.52
72118;BME280;59992;47.490;8.736;2023-07-22T00:26:06;96630.14;;;17.07;85.42
72118;BME280;59992;47.490;8.736;2023-07-22T00:28:56;96627.95;;;17.04;85.92
72118;BME280;59992;47.490;8.736;2023-07-22T00:31:46;96628.59;;;17.02;86.80
72118;BME280;59992;47.490;8.736;2023-07-22T00:34:36;96629.27;;;17.02;85.71
72118;BME280;59992;47.490;8.736;2023-07-22T00:37:26;96624.64;;;17.00;86.05
72118;BME280;59992;47.490;8.736;2023-07-22T00:40:16;96626.61;;;17.00;85.18
72118;BME280;59992;47.490;8.736;2023-07-22T00:43:06;96626.39;;;16.99;85.94
72118;BME280;59992;47.490;8.736;2023-07-22T00:45:57;96621.07;;;16.97;85.86
72118;BME280;59992;47.490;8.736;2023-07-22T00:48:47;96617.58;;;16.94;86.14
72118;BME280;59992;47.490;8.736;2023-07-22T00:51:38;96616.99;;;16.92;85.81
72118;BME280;59992;47.490;8.736;2023-07-22T00:54:29;96611.37;;;16.88;86.19
72118;BME280;59992;47.490;8.736;2023-07-22T00:57:20;96611.17;;;16.85;86.94
72118;BME280;59992;47.490;8.736;2023-07-22T01:00:12;96610.50;;;16.84;87.08
72118;BME280;59992;47.490;8.736;2023-07-22T01:03:04;96606.41;;;16.81;87.71
72118;BME280;59992;47.490;8.736;2023-07-22T01:05:56;96604.42;;;16.80;88.00
72118;BME280;59992;47.490;8.736;2023-07-22T01:08:47;96603.77;;;16.77;87.85
72118;BME280;59992;47.490;8.736;2023-07-22T01:11:38;96601.87;;;16.76;86.86
72118;BME280;59992;47.490;8.736;2023-07-22T01:14:28;96603.90;;;16.72;86.01
72118;BME280;59992;47.490;8.736;2023-07-22T01:17:18;96597.20;;;16.68;86.79
72118;BME280;59992;47.490;8.736;2023-07-22T01:20:10;96592.76;;;16.62;86.68
72118;BME280;59992;47.490;8.736;2023-07-22T01:23:00;96593.89;;;16.56;87.92
72118;BME280;59992;47.490;8.736;2023-07-22T01:25:51;96594.33;;;16.50;88.74
72118;BME280;59992;47.490;8.736;2023-07-22T01:28:42;96595.44;;;16.43;88.00
72118;BME280;59992;47.490;8.736;2023-07-22T01:31:35;96588.05;;;16.32;86.68
72118;BME280;59992;47.490;8.736;2023-07-22T01:34:25;96599.94;;;16.27;86.16
72118;BME280;59992;47.490;8.736;2023-07-22T01:37:15;96601.16;;;16.17;88.94
72118;BME280;59992;47.490;8.736;2023-07-22T01:40:06;96603.76;;;16.09;90.43
72118;BME280;59992;47.490;8.736;2023-07-22T01:43:00;96601.44;;;16.02;88.73
72118;BME280;59992;47.490;8.736;2023-07-22T01:45:50;96598.14;;;15.95;88.08
72118;BME280;59992;47.490;8.736;2023-07-22T01:48:42;96596.43;;;15.88;88.90
72118;BME280;59992;47.490;8.736;2023-07-22T01:51:32;96595.95;;;15.81;88.49
72118;BME280;59992;47.490;8.736;2023-07-22T01:54:22;96598.83;;;15.73;90.94
72118;BME280;59992;47.490;8.736;2023-07-22T01:57:12;96597.02;;;15.69;92.49
72118;BME280;59992;47.490;8.736;2023-07-22T02:00:04;96593.45;;;15.67;89.42
72118;BME280;59992;47.490;8.736;2023-07-22T02:02:55;96593.78;;;15.62;88.76
72118;BME280;59992;47.490;8.736;2023-07-22T02:05:45;96598.77;;;15.58;90.10
72118;BME280;59992;47.490;8.736;2023-07-22T02:08:35;96605.06;;;15.51;92.50
72118;BME280;59992;47.490;8.736;2023-07-22T02:11:26;96607.90;;;15.50;93.06
72118;BME280;59992;47.490;8.736;2023-07-22T02:14:16;96610.27;;;15.49;90.42
72118;BME280;59992;47.490;8.736;2023-07-22T02:17:06;96610.98;;;15.46;89.85
72118;BME280;59992;47.490;8.736;2023-07-22T02:19:58;96608.85;;;15.42;89.31
72118;BME280;59992;47.490;8.736;2023-07-22T02:22:48;96611.59;;;15.38;91.63
72118;BME280;59992;47.490;8.736;2023-07-22T02:25:38;96606.96;;;15.36;90.38
72118;BME280;59992;47.490;8.736;2023-07-22T02:28:28;96603.68;;;15.34;91.62
72118;BME280;59992;47.490;8.736;2023-07-22T02:31:18;96603.09;;;15.32;93.95
72118;BME280;59992;47.490;8.736;2023-07-22T02:34:08;96602.17;;;15.32;95.46
72118;BME280;59992;47.490;8.736;2023-07-22T02:36:59;96607.88;;;15.34;95.17
72118;BME280;59992;47.490;8.736;2023-07-22T02:39:49;96612.60;;;15.36;94.55
72118;BME280;59992;47.490;8.736;2023-07-22T02:42:39;96606.41;;;15.39;94.25
72118;BME280;59992;47.490;8.736;2023-07-22T02:45:29;96607.02;;;15.43;94.35
72118;BME280;59992;47.490;8.736;2023-07-22T02:48:19;96601.52;;;15.45;94.43
72118;BME280;59992;47.490;8.736;2023-07-22T02:51:10;96598.86;;;15.45;95.88
72118;BME280;59992;47.490;8.736;2023-07-22T02:54:00;96596.39;;;15.47;97.17
72118;BME280;59992;47.490;8.736;2023-07-22T02:56:50;96591.72;;;15.49;96.29
72118;BME280;59992;47.490;8.736;2023-07-22T02:59:41;96591.56;;;15.49;93.41
72118;BME280;59992;47.490;8.736;2023-07-22T03:02:31;96590.05;;;15.47;92.65
72118;BME280;59992;47.490;8.736;2023-07-22T03:05:21;96587.11;;;15.45;92.84
72118;BME280;59992;47.490;8.736;2023-07-22T03:08:11;96589.02;;;15.43;96.25
72118;BME280;59992;47.490;8.736;2023-07-22T03:11:02;96588.64;;;15.42;93.64
72118;BME280;59992;47.490;8.736;2023-07-22T03:13:53;96590.69;;;15.38;93.48
72118;BME280;59992;47.490;8.736;2023-07-22T03:16:44;96595.36;;;15.34;93.89
72118;BME280;59992;47.490;8.736;2023-07-22T03:19:34;96592.56;;;15.31;93.11
72118;BME280;59992;47.490;8.736;2023-07-22T03:22:24;96592.95;;;15.27;93.12
72118;BME280;59992;47.490;8.736;2023-07-22T03:25:15;96597.25;;;15.23;93.80
72118;BME280;59992;47.490;8.736;2023-07-22T03:28:07;96599.10;;;15.19;93.58
72118;BME280;59992;47.490;8.736;2023-07-22T03:30:57;96600.04;;;15.15;94.76
72118;BME280;59992;47.490;8.736;2023-07-22T03:33:47;96588.86;;;15.05;95.35
72118;BME280;59992;47.490;8.736;2023-07-22T03:36:38;96596.85;;;15.08;94.89
72118;BME280;59992;47.490;8.736;2023-07-22T03:39:28;96596.40;;;15.08;94.15
72118;BME280;59992;47.490;8.736;2023-07-22T03:42:18;96595.80;;;15.06;94.67
72118;BME280;59992;47.490;8.736;2023-07-22T03:45:09;96596.71;;;15.05;98.13
72118;BME280;59992;47.490;8.736;2023-07-22T03:48:00;96597.31;;;15.07;96.59
72118;BME280;59992;47.490;8.736;2023-07-22T03:50:51;96586.55;;;15.08;95.44
72118;BME280;59992;47.490;8.736;2023-07-22T03:53:41;96586.94;;;15.09;96.60
72118;BME280;59992;47.490;8.736;2023-07-22T03:56:31;96589.52;;;15.09;96.10
72118;BME280;59992;47.490;8.736;2023-07-22T03:59:21;96589.84;;;15.09;95.88
72118;BME280;59992;47.490;8.736;2023-07-22T04:02:11;96592.20;;;15.09;97.82
72118;BME280;59992;47.490;8.736;2023-07-22T04:05:01;96595.16;;;15.12;97.01
72118;BME280;59992;47.490;8.736;2023-07-22T04:07:51;96592.57;;;15.13;95.91
72118;BME280;59992;47.490;8.736;2023-07-22T04:10:41;96596.76;;;15.14;95.45
72118;BME280;59992;47.490;8.736;2023-07-22T04:13:31;96599.28;;;15.15;94.93
72118;BME280;59992;47.490;8.736;2023-07-22T04:16:21;96598.41;;;15.18;96.41
72118;BME280;59992;47.490;8.736;2023-07-22T04:19:11;96605.58;;;15.20;95.82
72118;BME280;59992;47.490;8.736;2023-07-22T04:22:02;96606.95;;;15.21;95.44
72118;BME280;59992;47.490;8.736;2023-07-22T04:24:53;96607.25;;;15.22;96.60
72118;BME280;59992;47.490;8.736;2023-07-22T04:27:43;96600.77;;;15.20;96.76
72118;BME280;59992;47.490;8.736;2023-07-22T04:30:34;96607.84;;;15.27;95.92
72118;BME280;59992;47.490;8.736;2023-07-22T04:33:24;96612.26;;;15.29;95.11
72118;BME280;59992;47.490;8.736;2023-07-22T04:36:14;96620.55;;;15.32;96.29
72118;BME280;59992;47.490;8.736;2023-07-22T04:39:06;96618.70;;;15.41;95.59
72118;BME280;59992;47.490;8.736;2023-07-22T04:41:56;96620.48;;;15.52;94.46
72118;BME280;59992;47.490;8.736;2023-07-22T04:44:47;96619.94;;;15.54;94.47
72118;BME280;59992;47.490;8.736;2023-07-22T04:47:38;96623.29;;;15.57;93.70
72118;BME280;59992;47.490;8.736;2023-07-22T04:50:28;96623.26;;;15.60;92.95
72118;BME280;59992;47.490;8.736;2023-07-22T04:53:19;96625.15;;;15.64;92.43
72118;BME280;59992;47.490;8.736;2023-07-22T04:56:09;96624.30;;;15.68;91.85
72118;BME280;59992;47.490;8.736;2023-07-22T04:58:59;96628.53;;;15.72;92.59
72118;BME280;59992;47.490;8.736;2023-07-22T05:01:49;96628.11;;;15.79;91.82
72118;BME280;59992;47.490;8.736;2023-07-22T05:04:41;96632.92;;;16.01;91.33
72118;BME280;59992;47.490;8.736;2023-07-22T05:07:31;96635.70;;;16.27;90.52
72118;BME280;59992;47.490;8.736;2023-07-22T05:10:21;96639.13;;;16.67;89.72
72118;BME280;59992;47.490;8.736;2023-07-22T05:13:11;96641.00;;;17.01;87.78
72118;BME280;59992;47.490;8.736;2023-07-22T05:16:01;96646.70;;;17.23;86.87
72118;BME280;59992;47.490;8.736;2023-07-22T05:18:51;96645.05;;;17.47;86.28
72118;BME280;59992;47.490;8.736;2023-07-22T05:21:41;96643.35;;;17.55;86.18
72118;BME280;59992;47.490;8.736;2023-07-22T05:24:31;96646.45;;;17.58;85.27
72118;BME280;59992;47.490;8.736;2023-07-22T05:27:22;96651.34;;;17.60;85.38
72118;BME280;59992;47.490;8.736;2023-07-22T05:30:12;96649.96;;;17.60;85.18
72118;BME280;59992;47.490;8.736;2023-07-22T05:33:02;96650.91;;;17.57;85.11
72118;BME280;59992;47.490;8.736;2023-07-22T05:35:52;96651.54;;;17.56;85.23
72118;BME280;59992;47.490;8.736;2023-07-22T05:38:42;96653.92;;;17.55;85.57
72118;BME280;59992;47.490;8.736;2023-07-22T05:41:33;96655.25;;;17.60;85.79
72118;BME280;59992;47.490;8.736;2023-07-22T05:44:24;96661.02;;;17.68;85.58
72118;BME280;59992;47.490;8.736;2023-07-22T05:47:14;96662.44;;;17.78;85.10
72118;BME280;59992;47.490;8.736;2023-07-22T05:50:05;96665.20;;;17.88;85.02
72118;BME280;59992;47.490;8.736;2023-07-22T05:52:55;96667.02;;;17.95;83.92
72118;BME280;59992;47.490;8.736;2023-07-22T05:55:46;96668.00;;;18.11;84.58
72118;BME280;59992;47.490;8.736;2023-07-22T05:58:37;96671.41;;;18.77;82.34
72118;BME280;59992;47.490;8.736;2023-07-22T06:01:27;96673.02;;;19.69;80.11
72118;BME280;59992;47.490;8.736;2023-07-22T06:04:18;96677.23;;;20.69;74.00
72118;BME280;59992;47.490;8.736;2023-07-22T06:07:08;96679.25;;;21.64;72.89
72118;BME280;59992;47.490;8.736;2023-07-22T06:09:58;96676.94;;;22.67;74.22
72118;BME280;59992;47.490;8.736;2023-07-22T06:12:49;96675.41;;;23.61;64.66
72118;BME280;59992;47.490;8.736;2023-07-22T06:15:39;96676.79;;;24.42;65.60
72118;BME280;59992;47.490;8.736;2023-07-22T06:18:29;96681.46;;;25.06;58.34
72118;BME280;59992;47.490;8.736;2023-07-22T06:21:19;96684.33;;;25.35;62.51
72118;BME280;59992;47.490;8.736;2023-07-22T06:24:09;96682.33;;;25.62;54.76
72118;BME280;59992;47.490;8.736;2023-07-22T06:27:00;96683.66;;;25.94;57.37
72118;BME280;59992;47.490;8.736;2023-07-22T06:29:50;96686.58;;;26.40;58.10
72118;BME280;59992;47.490;8.736;2023-07-22T06:32:40;96682.98;;;27.02;56.75
72118;BME280;59992;47.490;8.736;2023-07-22T06:35:30;96686.77;;;27.65;55.01
72118;BME280;59992;47.490;8.736;2023-07-22T06:38:21;96687.44;;;28.25;51.66
72118;BME280;59992;47.490;8.736;2023-07-22T06:41:12;96690.98;;;28.54;47.81
72118;BME280;59992;47.490;8.736;2023-07-22T06:44:03;96695.82;;;29.04;50.24
72118;BME280;59992;47.490;8.736;2023-07-22T06:46:53;96697.58;;;29.18;44.26
72118;BME280;59992;47.490;8.736;2023-07-22T06:49:43;96698.02;;;29.30;48.63
72118;BME280;59992;47.490;8.736;2023-07-22T06:52:33;96698.83;;;29.60;48.16
72118;BME280;59992;47.490;8.736;2023-07-22T06:55:23;96698.57;;;29.73;43.34
72118;BME280;59992;47.490;8.736;2023-07-22T06:58:14;96695.40;;;29.40;43.45
72118;BME280;59992;47.490;8.736;2023-07-22T07:01:04;96693.44;;;28.71;44.14
72118;BME280;59992;47.490;8.736;2023-07-22T07:03:54;96695.14;;;27.81;45.92
72118;BME280;59992;47.490;8.736;2023-07-22T07:06:45;96696.25;;;27.21;46.90
72118;BME280;59992;47.490;8.736;2023-07-22T07:09:35;96701.07;;;26.81;48.57
72118;BME280;59992;47.490;8.736;2023-07-22T07:12:26;96695.19;;;26.38;48.45
72118;BME280;59992;47.490;8.736;2023-07-22T07:15:16;96697.88;;;26.01;49.89
72118;BME280;59992;47.490;8.736;2023-07-22T07:18:07;96702.91;;;25.97;50.40
72118;BME280;59992;47.490;8.736;2023-07-22T07:20:57;96698.46;;;26.22;49.06
72118;BME280;59992;47.490;8.736;2023-07-22T07:23:48;96699.02;;;26.28;48.07
72118;BME280;59992;47.490;8.736;2023-07-22T07:26:38;96698.54;;;26.46;49.12
72118;BME280;59992;47.490;8.736;2023-07-22T07:29:28;96697.17;;;26.39;47.13
72118;BME280;59992;47.490;8.736;2023-07-22T07:32:18;96697.84;;;26.29;48.14
72118;BME280;59992;47.490;8.736;2023-07-22T07:35:09;96696.64;;;26.19;48.40
72118;BME280;59992;47.490;8.736;2023-07-22T07:38:00;96699.11;;;26.20;47.60
72118;BME280;59992;47.490;8.736;2023-07-22T07:40:55;96697.67;;;25.93;46.33
72118;BME280;59992;47.490;8.736;2023-07-22T07:43:45;96696.86;;;26.01;45.00
72118;BME280;59992;47.490;8.736;2023-07-22T07:46:35;96695.05;;;26.24;45.71
72118;BME280;59992;47.490;8.736;2023-07-22T07:49:26;96693.21;;;26.40;44.11
72118;BME280;59992;47.490;8.736;2023-07-22T07:52:16;96694.04;;;26.66;44.48
72118;BME280;59992;47.490;8.736;2023-07-22T07:55:07;96696.24;;;26.94;42.66
72118;BME280;59992;47.490;8.736;2023-07-22T07:57:57;96694.37;;;27.34;42.42
72118;BME280;59992;47.490;8.736;2023-07-22T08:00:48;96696.39;;;27.82;40.89
72118;BME280;59992;47.490;8.736;2023-07-22T08:03:40;96698.14;;;27.66;40.66
72118;BME280;59992;47.490;8.736;2023-07-22T08:06:31;96701.31;;;27.47;41.44
72118;BME280;59992;47.490;8.736;2023-07-22T08:09:22;96705.73;;;27.79;39.15
72118;BME280;59992;47.490;8.736;2023-07-22T08:12:12;96707.23;;;27.84;40.04
72118;BME280;59992;47.490;8.736;2023-07-22T08:15:03;96700.48;;;28.28;40.17
72118;BME280;59992;47.490;8.736;2023-07-22T08:17:53;96694.46;;;28.57;37.86
72118;BME280;59992;47.490;8.736;2023-07-22T08:20:43;96694.17;;;28.65;36.50
72118;BME280;59992;47.490;8.736;2023-07-22T08:23:36;96691.08;;;28.63;38.58
72118;BME280;59992;47.490;8.736;2023-07-22T08:26:26;96692.30;;;28.66;38.30
72118;BME280;59992;47.490;8.736;2023-07-22T08:29:17;96686.89;;;28.70;37.27
72118;BME280;59992;47.490;8.736;2023-07-22T08:32:07;96692.95;;;28.52;37.22
72118;BME280;59992;47.490;8.736;2023-07-22T08:34:58;96691.50;;;28.23;36.22
72118;BME280;59992;47.490;8.736;2023-07-22T08:37:48;96698.51;;;27.70;37.12
72118;BME280;59992;47.490;8.736;2023-07-22T08:40:39;96696.60;;;27.57;37.53
72118;BME280;59992;47.490;8.736;2023-07-22T08:43:30;96694.98;;;27.34;38.86
72118;BME280;59992;47.490;8.736;2023-07-22T08:46:24;96688.77;;;27.13;38.85
72118;BME280;59992;47.490;8.736;2023-07-22T08:49:17;96691.06;;;26.71;40.20
72118;BME280;59992;47.490;8.736;2023-07-22T08:52:08;96683.73;;;26.98;39.24
72118;BME280;59992;47.490;8.736;2023-07-22T08:54:58;96685.64;;;27.22;39.56
72118;BME280;59992;47.490;8.736;2023-07-22T08:57:49;96689.88;;;27.64;38.61
72118;BME280;59992;47.490;8.736;2023-07-22T09:00:40;96689.64;;;27.75;37.46
72118;BME280;59992;47.490;8.736;2023-07-22T09:03:31;96687.96;;;27.82;38.69
72118;BME280;59992;47.490;8.736;2023-07-22T09:06:22;96690.09;;;27.70;37.85
72118;BME280;59992;47.490;8.736;2023-07-22T09:09:12;96690.39;;;27.82;37.58
72118;BME280;59992;47.490;8.736;2023-07-22T09:12:02;96692.02;;;27.58;37.26
72118;BME280;59992;47.490;8.736;2023-07-22T09:14:53;96688.80;;;27.10;41.10
72118;BME280;59992;47.490;8.736;2023-07-22T09:17:43;96693.95;;;26.85;41.12
72118;BME280;59992;47.490;8.736;2023-07-22T09:20:34;96691.37;;;26.55;40.16
72118;BME280;59992;47.490;8.736;2023-07-22T09:23:34;96686.29;;;26.38;40.18
72118;BME280;59992;47.490;8.736;2023-07-22T09:26:25;96692.61;;;26.21;42.37
72118;BME280;59992;47.490;8.736;2023-07-22T09:29:15;96694.57;;;25.91;40.99
72118;BME280;59992;47.490;8.736;2023-07-22T09:32:06;96692.91;;;25.57;43.01
72118;BME280;59992;47.490;8.736;2023-07-22T09:34:56;96697.40;;;25.35;43.91
72118;BME280;59992;47.490;8.736;2023-07-22T09:37:47;96692.38;;;24.99;44.18
72118;BME280;59992;47.490;8.736;2023-07-22T09:40:38;96688.25;;;24.66;45.38
72118;BME280;59992;47.490;8.736;2023-07-22T09:43:30;96690.84;;;24.57;44.83
72118;BME280;59992;47.490;8.736;2023-07-22T09:46:20;96685.38;;;24.43;46.26
72118;BME280;59992;47.490;8.736;2023-07-22T09:49:11;96693.27;;;24.23;45.10
72118;BME280;59992;47.490;8.736;2023-07-22T09:52:10;96695.44;;;24.09;46.29
72118;BME280;59992;47.490;8.736;2023-07-22T09:55:02;96691.42;;;24.13;47.07
72118;BME280;59992;47.490;8.736;2023-07-22T09:57:55;96689.10;;;24.13;47.44
72118;BME280;59992;47.490;8.736;2023-07-22T10:00:48;96687.29;;;24.01;46.49
72118;BME280;59992;47.490;8.736;2023-07-22T10:03:41;96687.70;;;24.13;47.57
72118;BME280;59992;47.490;8.736;2023-07-22T10:06:33;96690.80;;;24.41;45.85
72118;BME280;59992;47.490;8.736;2023-07-22T10:09:25;96686.27;;;24.63;45.29
72118;BME280;59992;47.490;8.736;2023-07-22T10:12:18;96682.25;;;24.90;43.93
72118;BME280;59992;47.490;8.736;2023-07-22T10:15:09;96674.27;;;25.10;43.61
72118;BME280;59992;47.490;8.736;2023-07-22T10:18:01;96671.70;;;25.08;42.69
72118;BME280;59992;47.490;8.736;2023-07-22T10:20:52;96665.37;;;25.17;42.72
72118;BME280;59992;47.490;8.736;2023-07-22T10:23:44;96662.23;;;25.32;43.10
72118;BME280;59992;47.490;8.736;2023-07-22T10:26:35;96654.15;;;25.43;43.19
72118;BME280;59992;47.490;8.736;2023-07-22T10:29:26;96662.86;;;25.61;43.15
72118;BME280;59992;47.490;8.736;2023-07-22T10:32:17;96666.00;;;25.73;41.41
72118;BME280;59992;47.490;8.736;2023-07-22T10:35:12;96662.00;;;25.77;40.38
72118;BME280;59992;47.490;8.736;2023-07-22T10:38:10;96650.02;;;25.77;40.59
72118;BME280;59992;47.490;8.736;2023-07-22T10:41:01;96645.79;;;25.89;40.21
72118;BME280;59992;47.490;8.736;2023-07-22T10:43:59;96641.63;;;25.89;40.90
72118;BME280;59992;47.490;8.736;2023-07-22T10:46:58;96641.75;;;25.97;40.35
72118;BME280;59992;47.490;8.736;2023-07-22T10:49:49;96639.98;;;25.73;40.48
72118;BME280;59992;47.490;8.736;2023-07-22T10:52:42;96634.60;;;25.69;41.32
72118;BME280;59992;47.490;8.736;2023-07-22T10:56:05;96630.05;;;25.78;42.35
72118;BME280;59992;47.490;8.736;2023-07-22T10:59:00;96624.16;;;25.72;41.57
72118;BME280;59992;47.490;8.736;2023-07-22T11:01:51;96624.62;;;25.68;43.26
72118;BME280;59992;47.490;8.736;2023-07-22T11:04:44;96625.27;;;25.63;42.59
72118;BME280;59992;47.490;8.736;2023-07-22T11:07:42;96621.58;;;25.41;41.78
72118;BME280;59992;47.490;8.736;2023-07-22T11:10:32;96621.08;;;25.19;42.52
72118;BME280;59992;47.490;8.736;2023-07-22T11:13:29;96619.44;;;25.03;42.25
72118;BME280;59992;47.490;8.736;2023-07-22T11:16:22;96621.98;;;24.86;43.49
72118;BME280;59992;47.490;8.736;2023-07-22T11:19:12;96620.08;;;24.81;43.37
72118;BME280;59992;47.490;8.736;2023-07-22T11:22:03;96617.36;;;24.86;43.33
72118;BME280;59992;47.490;8.736;2023-07-22T11:24:54;96612.52;;;24.89;43.07
72118;BME280;59992;47.490;8.736;2023-07-22T11:27:44;96609.26;;;24.84;43.75
72118;BME280;59992;47.490;8.736;2023-07-22T11:30:35;96605.42;;;24.94;42.85
72118;BME280;59992;47.490;8.736;2023-07-22T11:33:25;96610.46;;;24.92;45.66
72118;BME280;59992;47.490;8.736;2023-07-22T11:36:16;96607.66;;;24.96;44.56
72118;BME280;59992;47.490;8.736;2023-07-22T11:39:07;96602.15;;;24.89;44.14
72118;BME280;59992;47.490;8.736;2023-07-22T11:41:58;96597.90;;;24.94;45.17
72118;BME280;59992;47.490;8.736;2023-07-22T11:44:49;96594.42;;;25.05;45.24
72118;BME280;59992;47.490;8.736;2023-07-22T11:47:39;96593.98;;;25.09;42.95
72118;BME280;59992;47.490;8.736;2023-07-22T11:50:34;96594.48;;;25.03;43.01
72118;BME280;59992;47.490;8.736;2023-07-22T11:53:27;96596.44;;;25.06;42.84
72118;BME280;59992;47.490;8.736;2023-07-22T11:56:22;96591.94;;;24.99;42.21
72118;BME280;59992;47.490;8.736;2023-07-22T11:59:13;96585.45;;;24.90;42.26
72118;BME280;59992;47.490;8.736;2023-07-22T12:02:05;96582.41;;;24.81;41.90
72118;BME280;59992;47.490;8.736;2023-07-22T12:04:56;96582.56;;;24.70;42.35
72118;BME280;59992;47.490;8.736;2023-07-22T12:07:47;96579.22;;;24.63;43.33
72118;BME280;59992;47.490;8.736;2023-07-22T12:10:37;96575.30;;;24.58;43.62
72118;BME280;59992;47.490;8.736;2023-07-22T12:13:27;96576.98;;;24.53;47.52
72118;BME280;59992;47.490;8.736;2023-07-22T12:16:22;96575.66;;;24.55;44.33
72118;BME280;59992;47.490;8.736;2023-07-22T12:19:13;96571.92;;;24.60;42.39
72118;BME280;59992;47.490;8.736;2023-07-22T12:22:03;96573.41;;;24.70;43.88
72118;BME280;59992;47.490;8.736;2023-07-22T12:24:53;96568.76;;;24.85;42.46
72118;BME280;59992;47.490;8.736;2023-07-22T12:27:45;96557.48;;;24.88;41.36
72118;BME280;59992;47.490;8.736;2023-07-22T12:30:35;96562.48;;;24.87;42.21
72118;BME280;59992;47.490;8.736;2023-07-22T12:33:26;96556.83;;;24.85;40.97
72118;BME280;59992;47.490;8.736;2023-07-22T12:36:16;96557.88;;;24.84;41.77
72118;BME280;59992;47.490;8.736;2023-07-22T12:39:07;96553.48;;;24.82;41.41
72118;BME280;59992;47.490;8.736;2023-07-22T12:41:57;96550.95;;;24.81;42.34
72118;BME280;59992;47.490;8.736;2023-07-22T12:44:47;96549.86;;;24.81;42.09
72118;BME280;59992;47.490;8.736;2023-07-22T12:47:37;96549.56;;;24.84;40.09
72118;BME280;59992;47.490;8.736;2023-07-22T12:50:29;96544.64;;;24.87;40.17
72118;BME280;59992;47.490;8.736;2023-07-22T12:53:19;96544.55;;;24.82;40.03
72118;BME280;59992;47.490;8.736;2023-07-22T12:56:09;96545.19;;;24.73;40.05
72118;BME280;59992;47.490;8.736;2023-07-22T12:58:59;96541.07;;;24.80;39.48
72118;BME280;59992;47.490;8.736;2023-07-22T13:01:50;96537.26;;;24.88;39.98
72118;BME280;59992;47.490;8.736;2023-07-22T13:04:40;96536.01;;;24.98;38.87
72118;BME280;59992;47.490;8.736;2023-07-22T13:07:33;96533.48;;;25.12;40.47
72118;BME280;59992;47.490;8.736;2023-07-22T13:10:23;96527.33;;;25.25;39.13
72118;BME280;59992;47.490;8.736;2023-07-22T13:13:14;96530.52;;;25.36;39.01
72118;BME280;59992;47.490;8.736;2023-07-22T13:16:04;96534.75;;;25.39;38.22
72118;BME280;59992;47.490;8.736;2023-07-22T13:18:55;96529.38;;;25.43;37.25
72118;BME280;59992;47.490;8.736;2023-07-22T13:21:49;96525.94;;;25.42;36.27
72118;BME280;59992;47.490;8.736;2023-07-22T13:24:39;96529.65;;;25.38;37.59
72118;BME280;59992;47.490;8.736;2023-07-22T13:27:30;96530.90;;;25.38;37.80
72118;BME280;59992;47.490;8.736;2023-07-22T13:30:20;96522.05;;;25.35;37.11
72118;BME280;59992;47.490;8.736;2023-07-22T13:33:11;96520.50;;;25.28;38.36
72118;BME280;59992;47.490;8.736;2023-07-22T13:36:01;96519.40;;;25.23;37.77
72118;BME280;59992;47.490;8.736;2023-07-22T13:38:51;96515.63;;;25.24;38.84
72118;BME280;59992;47.490;8.736;2023-07-22T13:41:41;96510.95;;;25.25;38.12
72118;BME280;59992;47.490;8.736;2023-07-22T13:44:31;96502.02;;;25.17;35.89
72118;BME280;59992;47.490;8.736;2023-07-22T13:47:21;96498.14;;;25.01;37.45
72118;BME280;59992;47.490;8.736;2023-07-22T13:50:12;96501.69;;;25.09;38.30
72118;BME280;59992;47.490;8.736;2023-07-22T13:53:02;96506.45;;;25.15;37.90
72118;BME280;59992;47.490;8.736;2023-07-22T13:55:52;96505.33;;;25.22;37.41
72118;BME280;59992;47.490;8.736;2023-07-22T13:58:42;96507.30;;;25.29;37.47
72118;BME280;59992;47.490;8.736;2023-07-22T14:01:32;96501.09;;;25.27;36.54
72118;BME280;59992;47.490;8.736;2023-07-22T14:04:23;96502.77;;;25.19;36.91
72118;BME280;59992;47.490;8.736;2023-07-22T14:07:13;96501.52;;;25.16;36.26
72118;BME280;59992;47.490;8.736;2023-07-22T14:10:03;96496.37;;;25.11;38.10
72118;BME280;59992;47.490;8.736;2023-07-22T14:12:54;96492.95;;;25.18;36.75
72118;BME280;59992;47.490;8.736;2023-07-22T14:15:44;96487.70;;;25.20;36.54
72118;BME280;59992;47.490;8.736;2023-07-22T14:18:34;96482.90;;;25.28;37.19
72118;BME280;59992;47.490;8.736;2023-07-22T14:21:25;96483.97;;;25.33;37.44
72118;BME280;59992;47.490;8.736;2023-07-22T14:24:15;96480.03;;;25.40;36.21
72118;BME280;59992;47.490;8.736;2023-07-22T14:27:05;96481.48;;;25.40;37.19
72118;BME280;59992;47.490;8.736;2023-07-22T14:29:55;96490.21;;;25.48;37.10
72118;BME280;59992;47.490;8.736;2023-07-22T14:32:46;96488.57;;;25.51;35.48
72118;BME280;59992;47.490;8.736;2023-07-22T14:35:37;96483.69;;;25.56;36.72
72118;BME280;59992;47.490;8.736;2023-07-22T14:38:27;96476.77;;;25.56;36.48
72118;BME280;59992;47.490;8.736;2023-07-22T14:41:18;96472.05;;;25.53;35.18
72118;BME280;59992;47.490;8.736;2023-07-22T14:44:08;96473.86;;;25.54;35.12
72118;BME280;59992;47.490;8.736;2023-07-22T14:46:58;96471.64;;;25.54;35.55
72118;BME280;59992;47.490;8.736;2023-07-22T14:49:48;96465.73;;;25.59;35.37
72118;BME280;59992;47.490;8.736;2023-07-22T14:52:39;96462.66;;;25.70;35.69
72118;BME280;59992;47.490;8.736;2023-07-22T14:55:31;96462.46;;;25.81;34.38
72118;BME280;59992;47.490;8.736;2023-07-22T14:58:21;96459.08;;;25.88;33.78
72118;BME280;59992;47.490;8.736;2023-07-22T15:01:11;96455.91;;;25.92;34.22
72118;BME280;59992;47.490;8.736;2023-07-22T15:04:02;96452.41;;;25.92;34.86